sensor_id;sensor_type;location;lat;lon;timestamp;P1;durP1;ratioP1;P2;durP2;ratioP2
3819;SDS011;1925;51.356;9.530;2023-02-23T00:00:08;17.73;;;14.40;;
3819;SDS011;1925;51.356;9.530;2023-02-23T00:02:52;17.92;;;13.88;;
3819;SDS011;1925;51.356;9.530;2023-02-23T00:05:19;23.02;;;15.82;;
3819;SDS011;1925;51.356;9.530;2023-02-23T00:07:45;21.47;;;14.23;;
3819;SDS011;1925;51.356;9.530;2023-02-23T00:10:12;20.67;;;14.40;;
3819;SDS011;1925;51.356;9.530;2023-02-23T00:12:38;19.02;;;14.63;;
3819;SDS011;1925;51.356;9.530;2023-02-23T00:15:05;23.33;;;15.85;;
3819;SDS011;1925;51.356;9.530;2023-02-23T00:17:31;16.95;;;13.40;;
3819;SDS011;1925;51.356;9.530;2023-02-23T00:19:57;18.52;;;14.13;;
3819;SDS011;1925;51.356;9.530;2023-02-23T00:22:24;23.95;;;15.73;;
3819;SDS011;1925;51.356;9.530;2023-02-23T00:24:51;27.58;;;16.00;;
3819;SDS011;1925;51.356;9.530;2023-02-23T00:27:16;22.60;;;15.40;;
3819;SDS011;1925;51.356;9.530;2023-02-23T00:29:44;24.02;;;15.65;;
3819;SDS011;1925;51.356;9.530;2023-02-23T00:32:13;20.88;;;15.95;;
3819;SDS011;1925;51.356;9.530;2023-02-23T00:34:43;20.20;;;14.60;;
3819;SDS011;1925;51.356;9.530;2023-02-23T00:37:09;22.10;;;16.17;;
3819;SDS011;1925;51.356;9.530;2023-02-23T00:39:36;21.45;;;15.70;;
3819;SDS011;1925;51.356;9.530;2023-02-23T00:42:02;22.75;;;14.93;;
3819;SDS011;1925;51.356;9.530;2023-02-23T00:44:30;21.73;;;15.43;;
3819;SDS011;1925;51.356;9.530;2023-02-23T00:46:58;23.02;;;15.13;;
3819;SDS011;1925;51.356;9.530;2023-02-23T00:49:24;22.33;;;15.80;;
3819;SDS011;1925;51.356;9.530;2023-02-23T00:51:50;21.30;;;14.40;;
3819;SDS011;1925;51.356;9.530;2023-02-23T00:54:16;18.63;;;14.43;;
3819;SDS011;1925;51.356;9.530;2023-02-23T00:56:42;19.27;;;15.73;;
3819;SDS011;1925;51.356;9.530;2023-02-23T00:59:09;22.02;;;14.60;;
3819;SDS011;1925;51.356;9.530;2023-02-23T01:01:36;19.60;;;16.10;;
3819;SDS011;1925;51.356;9.530;2023-02-23T01:04:02;18.88;;;14.43;;
3819;SDS011;1925;51.356;9.530;2023-02-23T01:06:29;21.52;;;15.88;;
3819;SDS011;1925;51.356;9.530;2023-02-23T01:08:54;20.17;;;14.63;;
3819;SDS011;1925;51.356;9.530;2023-02-23T01:11:25;23.35;;;16.02;;
3819;SDS011;1925;51.356;9.530;2023-02-23T01:13:55;19.48;;;14.75;;
3819;SDS011;1925;51.356;9.530;2023-02-23T01:16:22;19.25;;;15.15;;
3819;SDS011;1925;51.356;9.530;2023-02-23T01:18:53;22.83;;;16.23;;
3819;SDS011;1925;51.356;9.530;2023-02-23T01:21:20;18.48;;;14.63;;
3819;SDS011;1925;51.356;9.530;2023-02-23T01:23:46;17.38;;;14.93;;
3819;SDS011;1925;51.356;9.530;2023-02-23T01:26:20;22.23;;;15.75;;
3819;SDS011;1925;51.356;9.530;2023-02-23T01:28:50;20.33;;;15.75;;
3819;SDS011;1925;51.356;9.530;2023-02-23T01:31:16;22.15;;;16.27;;
3819;SDS011;1925;51.356;9.530;2023-02-23T01:33:42;20.35;;;15.05;;
3819;SDS011;1925;51.356;9.530;2023-02-23T01:36:09;22.27;;;16.58;;
3819;SDS011;1925;51.356;9.530;2023-02-23T01:38:36;23.60;;;16.35;;
3819;SDS011;1925;51.356;9.530;2023-02-23T01:41:02;21.53;;;15.30;;
3819;SDS011;1925;51.356;9.530;2023-02-23T01:43:29;19.20;;;15.23;;
3819;SDS011;1925;51.356;9.530;2023-02-23T01:45:55;25.08;;;16.85;;
3819;SDS011;1925;51.356;9.530;2023-02-23T01:50:54;23.58;;;16.52;;
3819;SDS011;1925;51.356;9.530;2023-02-23T01:53:20;19.17;;;15.45;;
3819;SDS011;1925;51.356;9.530;2023-02-23T01:55:49;22.85;;;16.45;;
3819;SDS011;1925;51.356;9.530;2023-02-23T01:58:19;19.60;;;15.23;;
3819;SDS011;1925;51.356;9.530;2023-02-23T02:00:47;21.65;;;15.85;;
3819;SDS011;1925;51.356;9.530;2023-02-23T02:03:16;22.92;;;14.50;;
3819;SDS011;1925;51.356;9.530;2023-02-23T02:05:46;22.15;;;14.60;;
3819;SDS011;1925;51.356;9.530;2023-02-23T02:08:13;18.75;;;15.77;;
3819;SDS011;1925;51.356;9.530;2023-02-23T02:10:39;23.90;;;17.10;;
3819;SDS011;1925;51.356;9.530;2023-02-23T02:13:11;23.52;;;17.55;;
3819;SDS011;1925;51.356;9.530;2023-02-23T02:15:44;20.55;;;16.45;;
3819;SDS011;1925;51.356;9.530;2023-02-23T02:21:01;20.65;;;15.75;;
3819;SDS011;1925;51.356;9.530;2023-02-23T02:23:47;21.20;;;16.33;;
3819;SDS011;1925;51.356;9.530;2023-02-23T02:26:31;19.58;;;15.20;;
3819;SDS011;1925;51.356;9.530;2023-02-23T02:31:39;20.02;;;14.43;;
3819;SDS011;1925;51.356;9.530;2023-02-23T02:37:00;21.48;;;15.35;;
3819;SDS011;1925;51.356;9.530;2023-02-23T02:42:05;18.38;;;14.90;;
3819;SDS011;1925;51.356;9.530;2023-02-23T02:47:05;20.77;;;15.55;;
3819;SDS011;1925;51.356;9.530;2023-02-23T02:49:38;19.83;;;15.07;;
3819;SDS011;1925;51.356;9.530;2023-02-23T02:52:18;25.60;;;16.20;;
3819;SDS011;1925;51.356;9.530;2023-02-23T02:54:48;20.25;;;16.30;;
3819;SDS011;1925;51.356;9.530;2023-02-23T02:57:17;21.00;;;15.95;;
3819;SDS011;1925;51.356;9.530;2023-02-23T02:59:45;21.10;;;16.13;;
3819;SDS011;1925;51.356;9.530;2023-02-23T03:02:30;25.20;;;15.52;;
3819;SDS011;1925;51.356;9.530;2023-02-23T03:05:17;26.80;;;17.25;;
3819;SDS011;1925;51.356;9.530;2023-02-23T03:19:55;21.23;;;15.73;;
3819;SDS011;1925;51.356;9.530;2023-02-23T03:25:53;25.50;;;16.17;;
3819;SDS011;1925;51.356;9.530;2023-02-23T03:28:58;24.83;;;16.98;;
3819;SDS011;1925;51.356;9.530;2023-02-23T03:37:53;23.77;;;16.52;;
3819;SDS011;1925;51.356;9.530;2023-02-23T03:40:40;22.52;;;15.68;;
3819;SDS011;1925;51.356;9.530;2023-02-23T03:43:29;23.40;;;17.20;;
3819;SDS011;1925;51.356;9.530;2023-02-23T03:46:15;23.27;;;16.25;;
3819;SDS011;1925;51.356;9.530;2023-02-23T03:49:02;24.02;;;17.10;;
3819;SDS011;1925;51.356;9.530;2023-02-23T03:51:49;22.50;;;16.83;;
3819;SDS011;1925;51.356;9.530;2023-02-23T03:54:39;21.90;;;17.00;;
3819;SDS011;1925;51.356;9.530;2023-02-23T03:57:26;25.98;;;18.80;;
3819;SDS011;1925;51.356;9.530;2023-02-23T04:00:14;22.23;;;17.58;;
3819;SDS011;1925;51.356;9.530;2023-02-23T04:03:00;27.13;;;16.80;;
3819;SDS011;1925;51.356;9.530;2023-02-23T04:05:47;25.83;;;19.75;;
3819;SDS011;1925;51.356;9.530;2023-02-23T04:08:34;24.52;;;17.02;;
3819;SDS011;1925;51.356;9.530;2023-02-23T04:11:22;29.30;;;18.15;;
3819;SDS011;1925;51.356;9.530;2023-02-23T04:14:14;22.80;;;17.02;;
3819;SDS011;1925;51.356;9.530;2023-02-23T04:16:41;22.67;;;17.20;;
3819;SDS011;1925;51.356;9.530;2023-02-23T04:19:07;24.92;;;17.58;;
3819;SDS011;1925;51.356;9.530;2023-02-23T04:21:33;31.60;;;17.25;;
3819;SDS011;1925;51.356;9.530;2023-02-23T04:23:59;27.00;;;18.70;;
3819;SDS011;1925;51.356;9.530;2023-02-23T04:26:25;24.33;;;18.23;;
3819;SDS011;1925;51.356;9.530;2023-02-23T04:28:51;26.17;;;17.47;;
3819;SDS011;1925;51.356;9.530;2023-02-23T04:31:17;26.70;;;18.80;;
3819;SDS011;1925;51.356;9.530;2023-02-23T04:33:43;25.70;;;18.33;;
3819;SDS011;1925;51.356;9.530;2023-02-23T04:36:09;23.95;;;18.02;;
3819;SDS011;1925;51.356;9.530;2023-02-23T04:38:35;23.65;;;17.67;;
3819;SDS011;1925;51.356;9.530;2023-02-23T04:41:01;28.07;;;19.40;;
3819;SDS011;1925;51.356;9.530;2023-02-23T04:43:27;27.20;;;19.67;;
3819;SDS011;1925;51.356;9.530;2023-02-23T04:45:53;22.02;;;16.58;;
3819;SDS011;1925;51.356;9.530;2023-02-23T04:48:19;29.57;;;18.40;;
3819;SDS011;1925;51.356;9.530;2023-02-23T04:50:45;25.33;;;17.08;;
3819;SDS011;1925;51.356;9.530;2023-02-23T04:53:11;28.70;;;17.97;;
3819;SDS011;1925;51.356;9.530;2023-02-23T04:55:37;25.13;;;16.83;;
3819;SDS011;1925;51.356;9.530;2023-02-23T04:58:03;22.30;;;16.73;;
3819;SDS011;1925;51.356;9.530;2023-02-23T05:00:29;23.38;;;16.23;;
3819;SDS011;1925;51.356;9.530;2023-02-23T05:02:57;23.17;;;17.35;;
3819;SDS011;1925;51.356;9.530;2023-02-23T05:05:23;20.57;;;15.37;;
3819;SDS011;1925;51.356;9.530;2023-02-23T05:07:49;24.83;;;18.23;;
3819;SDS011;1925;51.356;9.530;2023-02-23T05:10:15;30.73;;;18.03;;
3819;SDS011;1925;51.356;9.530;2023-02-23T05:12:41;19.50;;;15.10;;
3819;SDS011;1925;51.356;9.530;2023-02-23T05:15:07;22.23;;;16.67;;
3819;SDS011;1925;51.356;9.530;2023-02-23T05:17:36;21.90;;;15.05;;
3819;SDS011;1925;51.356;9.530;2023-02-23T05:20:02;23.30;;;15.88;;
3819;SDS011;1925;51.356;9.530;2023-02-23T05:22:28;23.05;;;16.00;;
3819;SDS011;1925;51.356;9.530;2023-02-23T05:24:54;22.40;;;14.90;;
3819;SDS011;1925;51.356;9.530;2023-02-23T05:27:20;20.80;;;15.03;;
3819;SDS011;1925;51.356;9.530;2023-02-23T05:29:46;23.02;;;16.70;;
3819;SDS011;1925;51.356;9.530;2023-02-23T05:32:12;23.20;;;15.47;;
3819;SDS011;1925;51.356;9.530;2023-02-23T05:34:38;19.67;;;15.20;;
3819;SDS011;1925;51.356;9.530;2023-02-23T05:37:04;23.27;;;15.70;;
3819;SDS011;1925;51.356;9.530;2023-02-23T05:39:31;21.50;;;14.75;;
3819;SDS011;1925;51.356;9.530;2023-02-23T05:41:56;23.70;;;14.50;;
3819;SDS011;1925;51.356;9.530;2023-02-23T05:44:22;17.80;;;14.77;;
3819;SDS011;1925;51.356;9.530;2023-02-23T05:46:49;20.67;;;14.88;;
3819;SDS011;1925;51.356;9.530;2023-02-23T05:49:15;24.33;;;16.50;;
3819;SDS011;1925;51.356;9.530;2023-02-23T05:51:41;20.10;;;15.30;;
3819;SDS011;1925;51.356;9.530;2023-02-23T05:54:07;22.98;;;15.27;;
3819;SDS011;1925;51.356;9.530;2023-02-23T05:56:34;24.02;;;14.68;;
3819;SDS011;1925;51.356;9.530;2023-02-23T05:59:00;20.85;;;16.23;;
3819;SDS011;1925;51.356;9.530;2023-02-23T06:01:28;25.40;;;16.05;;
3819;SDS011;1925;51.356;9.530;2023-02-23T06:03:54;21.15;;;14.68;;
3819;SDS011;1925;51.356;9.530;2023-02-23T06:06:21;21.05;;;14.73;;
3819;SDS011;1925;51.356;9.530;2023-02-23T06:08:48;20.17;;;15.65;;
3819;SDS011;1925;51.356;9.530;2023-02-23T06:11:13;22.53;;;15.60;;
3819;SDS011;1925;51.356;9.530;2023-02-23T06:13:39;21.35;;;14.80;;
3819;SDS011;1925;51.356;9.530;2023-02-23T06:16:06;19.27;;;16.70;;
3819;SDS011;1925;51.356;9.530;2023-02-23T06:18:32;24.08;;;15.68;;
3819;SDS011;1925;51.356;9.530;2023-02-23T06:20:59;20.48;;;14.80;;
3819;SDS011;1925;51.356;9.530;2023-02-23T06:23:26;25.25;;;14.75;;
3819;SDS011;1925;51.356;9.530;2023-02-23T06:25:52;18.35;;;15.18;;
3819;SDS011;1925;51.356;9.530;2023-02-23T06:28:18;20.67;;;15.30;;
3819;SDS011;1925;51.356;9.530;2023-02-23T06:30:44;25.13;;;15.67;;
3819;SDS011;1925;51.356;9.530;2023-02-23T06:33:10;22.08;;;14.77;;
3819;SDS011;1925;51.356;9.530;2023-02-23T06:35:36;20.55;;;15.00;;
3819;SDS011;1925;51.356;9.530;2023-02-23T06:38:02;21.40;;;15.50;;
3819;SDS011;1925;51.356;9.530;2023-02-23T06:40:29;20.75;;;15.75;;
3819;SDS011;1925;51.356;9.530;2023-02-23T06:42:55;23.20;;;17.37;;
3819;SDS011;1925;51.356;9.530;2023-02-23T06:45:21;28.15;;;17.55;;
3819;SDS011;1925;51.356;9.530;2023-02-23T06:47:47;20.63;;;15.85;;
3819;SDS011;1925;51.356;9.530;2023-02-23T06:50:13;21.93;;;14.90;;
3819;SDS011;1925;51.356;9.530;2023-02-23T06:52:39;24.02;;;16.40;;
3819;SDS011;1925;51.356;9.530;2023-02-23T06:55:06;20.83;;;15.97;;
3819;SDS011;1925;51.356;9.530;2023-02-23T06:57:32;25.10;;;16.20;;
3819;SDS011;1925;51.356;9.530;2023-02-23T06:59:58;23.27;;;15.67;;
3819;SDS011;1925;51.356;9.530;2023-02-23T07:02:25;24.63;;;18.58;;
3819;SDS011;1925;51.356;9.530;2023-02-23T07:04:51;28.58;;;16.20;;
3819;SDS011;1925;51.356;9.530;2023-02-23T07:07:17;26.47;;;16.73;;
3819;SDS011;1925;51.356;9.530;2023-02-23T07:09:43;27.97;;;16.80;;
3819;SDS011;1925;51.356;9.530;2023-02-23T07:12:09;21.10;;;15.37;;
3819;SDS011;1925;51.356;9.530;2023-02-23T07:14:35;21.17;;;16.13;;
3819;SDS011;1925;51.356;9.530;2023-02-23T07:17:01;32.85;;;17.35;;
3819;SDS011;1925;51.356;9.530;2023-02-23T07:19:28;27.73;;;15.60;;
3819;SDS011;1925;51.356;9.530;2023-02-23T07:21:54;18.17;;;13.75;;
3819;SDS011;1925;51.356;9.530;2023-02-23T07:24:20;26.38;;;15.98;;
3819;SDS011;1925;51.356;9.530;2023-02-23T07:26:46;29.60;;;16.90;;
3819;SDS011;1925;51.356;9.530;2023-02-23T07:29:13;19.90;;;15.13;;
3819;SDS011;1925;51.356;9.530;2023-02-23T07:31:39;22.40;;;15.68;;
3819;SDS011;1925;51.356;9.530;2023-02-23T07:34:06;21.00;;;15.23;;
3819;SDS011;1925;51.356;9.530;2023-02-23T07:36:32;21.85;;;16.17;;
3819;SDS011;1925;51.356;9.530;2023-02-23T07:38:58;25.37;;;17.13;;
3819;SDS011;1925;51.356;9.530;2023-02-23T07:41:24;24.30;;;16.00;;
3819;SDS011;1925;51.356;9.530;2023-02-23T07:43:50;23.77;;;16.70;;
3819;SDS011;1925;51.356;9.530;2023-02-23T07:46:15;22.23;;;15.87;;
3819;SDS011;1925;51.356;9.530;2023-02-23T07:48:42;28.80;;;17.73;;
3819;SDS011;1925;51.356;9.530;2023-02-23T07:51:11;29.35;;;16.58;;
3819;SDS011;1925;51.356;9.530;2023-02-23T07:53:38;18.92;;;14.75;;
3819;SDS011;1925;51.356;9.530;2023-02-23T07:56:05;24.88;;;16.67;;
3819;SDS011;1925;51.356;9.530;2023-02-23T07:58:32;22.73;;;18.15;;
3819;SDS011;1925;51.356;9.530;2023-02-23T08:00:58;23.17;;;17.23;;
3819;SDS011;1925;51.356;9.530;2023-02-23T08:03:24;22.33;;;16.38;;
3819;SDS011;1925;51.356;9.530;2023-02-23T08:05:51;25.67;;;17.38;;
3819;SDS011;1925;51.356;9.530;2023-02-23T08:08:17;21.93;;;16.90;;
3819;SDS011;1925;51.356;9.530;2023-02-23T08:10:43;28.10;;;18.60;;
3819;SDS011;1925;51.356;9.530;2023-02-23T08:13:09;28.53;;;17.87;;
3819;SDS011;1925;51.356;9.530;2023-02-23T08:15:34;22.63;;;17.07;;
3819;SDS011;1925;51.356;9.530;2023-02-23T08:18:00;27.00;;;17.50;;
3819;SDS011;1925;51.356;9.530;2023-02-23T08:20:26;26.90;;;17.13;;
3819;SDS011;1925;51.356;9.530;2023-02-23T08:22:53;22.00;;;17.87;;
3819;SDS011;1925;51.356;9.530;2023-02-23T08:25:19;23.83;;;17.40;;
3819;SDS011;1925;51.356;9.530;2023-02-23T08:27:45;23.73;;;16.92;;
3819;SDS011;1925;51.356;9.530;2023-02-23T08:30:12;24.38;;;17.48;;
3819;SDS011;1925;51.356;9.530;2023-02-23T08:32:38;26.15;;;17.73;;
3819;SDS011;1925;51.356;9.530;2023-02-23T08:35:04;24.50;;;17.65;;
3819;SDS011;1925;51.356;9.530;2023-02-23T08:37:31;27.33;;;19.05;;
3819;SDS011;1925;51.356;9.530;2023-02-23T08:39:57;30.05;;;18.08;;
3819;SDS011;1925;51.356;9.530;2023-02-23T08:42:24;25.45;;;17.67;;
3819;SDS011;1925;51.356;9.530;2023-02-23T08:44:50;26.33;;;17.95;;
3819;SDS011;1925;51.356;9.530;2023-02-23T08:47:16;27.10;;;17.47;;
3819;SDS011;1925;51.356;9.530;2023-02-23T08:49:46;25.40;;;16.20;;
3819;SDS011;1925;51.356;9.530;2023-02-23T08:52:11;21.17;;;17.42;;
3819;SDS011;1925;51.356;9.530;2023-02-23T08:54:37;26.73;;;18.30;;
3819;SDS011;1925;51.356;9.530;2023-02-23T08:57:03;24.73;;;18.80;;
3819;SDS011;1925;51.356;9.530;2023-02-23T08:59:29;22.57;;;17.97;;
3819;SDS011;1925;51.356;9.530;2023-02-23T09:01:55;22.67;;;17.13;;
3819;SDS011;1925;51.356;9.530;2023-02-23T09:04:21;24.47;;;18.70;;
3819;SDS011;1925;51.356;9.530;2023-02-23T09:06:47;24.90;;;17.37;;
3819;SDS011;1925;51.356;9.530;2023-02-23T09:09:14;20.55;;;16.17;;
3819;SDS011;1925;51.356;9.530;2023-02-23T09:11:40;28.02;;;17.45;;
3819;SDS011;1925;51.356;9.530;2023-02-23T09:14:06;23.45;;;16.60;;
3819;SDS011;1925;51.356;9.530;2023-02-23T09:16:32;23.27;;;17.92;;
3819;SDS011;1925;51.356;9.530;2023-02-23T09:18:59;29.38;;;18.95;;
3819;SDS011;1925;51.356;9.530;2023-02-23T09:21:25;22.92;;;16.75;;
3819;SDS011;1925;51.356;9.530;2023-02-23T09:23:53;22.75;;;17.23;;
3819;SDS011;1925;51.356;9.530;2023-02-23T09:26:20;30.85;;;20.13;;
3819;SDS011;1925;51.356;9.530;2023-02-23T09:28:46;28.70;;;19.90;;
3819;SDS011;1925;51.356;9.530;2023-02-23T09:31:14;22.45;;;17.00;;
3819;SDS011;1925;51.356;9.530;2023-02-23T09:33:40;30.08;;;21.15;;
3819;SDS011;1925;51.356;9.530;2023-02-23T09:36:10;27.13;;;19.23;;
3819;SDS011;1925;51.356;9.530;2023-02-23T09:38:42;27.58;;;19.45;;
3819;SDS011;1925;51.356;9.530;2023-02-23T09:48:58;37.63;;;25.05;;
3819;SDS011;1925;51.356;9.530;2023-02-23T09:51:27;32.72;;;25.25;;
3819;SDS011;1925;51.356;9.530;2023-02-23T09:53:58;40.85;;;24.48;;
3819;SDS011;1925;51.356;9.530;2023-02-23T09:56:35;31.80;;;22.58;;
3819;SDS011;1925;51.356;9.530;2023-02-23T09:59:05;35.40;;;24.42;;
3819;SDS011;1925;51.356;9.530;2023-02-23T10:01:42;30.88;;;24.40;;
3819;SDS011;1925;51.356;9.530;2023-02-23T10:04:25;32.47;;;22.27;;
3819;SDS011;1925;51.356;9.530;2023-02-23T10:12:10;37.00;;;23.80;;
3819;SDS011;1925;51.356;9.530;2023-02-23T10:17:21;31.90;;;23.40;;
3819;SDS011;1925;51.356;9.530;2023-02-23T10:19:52;34.65;;;24.30;;
3819;SDS011;1925;51.356;9.530;2023-02-23T10:22:21;29.77;;;22.10;;
3819;SDS011;1925;51.356;9.530;2023-02-23T10:24:49;37.38;;;25.48;;
3819;SDS011;1925;51.356;9.530;2023-02-23T10:27:20;39.70;;;23.85;;
3819;SDS011;1925;51.356;9.530;2023-02-23T10:29:51;31.45;;;23.77;;
3819;SDS011;1925;51.356;9.530;2023-02-23T10:34:48;32.47;;;23.27;;
3819;SDS011;1925;51.356;9.530;2023-02-23T10:37:17;39.88;;;22.85;;
3819;SDS011;1925;51.356;9.530;2023-02-23T10:39:44;34.95;;;23.65;;
3819;SDS011;1925;51.356;9.530;2023-02-23T10:42:16;34.67;;;24.35;;
3819;SDS011;1925;51.356;9.530;2023-02-23T10:44:44;32.85;;;25.25;;
3819;SDS011;1925;51.356;9.530;2023-02-23T10:47:14;43.97;;;26.42;;
3819;SDS011;1925;51.356;9.530;2023-02-23T10:49:48;34.17;;;24.25;;
3819;SDS011;1925;51.356;9.530;2023-02-23T10:52:16;40.33;;;24.60;;
3819;SDS011;1925;51.356;9.530;2023-02-23T10:54:44;32.38;;;23.70;;
3819;SDS011;1925;51.356;9.530;2023-02-23T10:57:18;34.00;;;25.15;;
3819;SDS011;1925;51.356;9.530;2023-02-23T11:02:29;30.65;;;22.83;;
3819;SDS011;1925;51.356;9.530;2023-02-23T11:04:56;35.00;;;23.17;;
3819;SDS011;1925;51.356;9.530;2023-02-23T11:07:24;38.42;;;26.77;;
3819;SDS011;1925;51.356;9.530;2023-02-23T11:09:50;31.00;;;23.38;;
3819;SDS011;1925;51.356;9.530;2023-02-23T11:12:21;32.20;;;23.80;;
3819;SDS011;1925;51.356;9.530;2023-02-23T11:14:51;30.08;;;23.27;;
3819;SDS011;1925;51.356;9.530;2023-02-23T11:17:36;38.55;;;25.45;;
3819;SDS011;1925;51.356;9.530;2023-02-23T11:22:33;39.00;;;25.93;;
3819;SDS011;1925;51.356;9.530;2023-02-23T11:25:00;37.10;;;26.83;;
3819;SDS011;1925;51.356;9.530;2023-02-23T11:27:29;39.72;;;26.67;;
3819;SDS011;1925;51.356;9.530;2023-02-23T11:29:55;40.53;;;28.37;;
3819;SDS011;1925;51.356;9.530;2023-02-23T11:32:30;36.75;;;26.52;;
3819;SDS011;1925;51.356;9.530;2023-02-23T11:35:13;39.67;;;29.00;;
3819;SDS011;1925;51.356;9.530;2023-02-23T11:37:49;40.58;;;26.73;;
3819;SDS011;1925;51.356;9.530;2023-02-23T11:40:22;38.95;;;28.05;;
3819;SDS011;1925;51.356;9.530;2023-02-23T11:42:59;45.85;;;31.25;;
3819;SDS011;1925;51.356;9.530;2023-02-23T11:45:31;40.80;;;27.33;;
3819;SDS011;1925;51.356;9.530;2023-02-23T11:47:58;42.35;;;30.55;;
3819;SDS011;1925;51.356;9.530;2023-02-23T11:52:54;43.10;;;27.33;;
3819;SDS011;1925;51.356;9.530;2023-02-23T11:55:21;40.33;;;27.85;;
3819;SDS011;1925;51.356;9.530;2023-02-23T11:57:49;47.22;;;27.80;;
3819;SDS011;1925;51.356;9.530;2023-02-23T12:00:25;42.42;;;30.67;;
3819;SDS011;1925;51.356;9.530;2023-02-23T12:02:54;38.72;;;27.52;;
3819;SDS011;1925;51.356;9.530;2023-02-23T12:05:28;39.55;;;28.70;;
3819;SDS011;1925;51.356;9.530;2023-02-23T12:07:57;42.33;;;28.42;;
3819;SDS011;1925;51.356;9.530;2023-02-23T12:10:27;37.65;;;27.05;;
3819;SDS011;1925;51.356;9.530;2023-02-23T12:12:57;35.85;;;26.00;;
3819;SDS011;1925;51.356;9.530;2023-02-23T12:15:33;39.65;;;27.90;;
3819;SDS011;1925;51.356;9.530;2023-02-23T12:18:03;35.72;;;26.90;;
3819;SDS011;1925;51.356;9.530;2023-02-23T12:20:33;41.25;;;27.42;;
3819;SDS011;1925;51.356;9.530;2023-02-23T12:23:02;40.17;;;29.63;;
3819;SDS011;1925;51.356;9.530;2023-02-23T12:25:35;38.63;;;28.00;;
3819;SDS011;1925;51.356;9.530;2023-02-23T12:28:17;36.00;;;27.70;;
3819;SDS011;1925;51.356;9.530;2023-02-23T12:30:49;42.78;;;29.75;;
3819;SDS011;1925;51.356;9.530;2023-02-23T12:36:03;43.60;;;30.80;;
3819;SDS011;1925;51.356;9.530;2023-02-23T12:41:13;40.20;;;28.15;;
3819;SDS011;1925;51.356;9.530;2023-02-23T12:43:46;39.20;;;29.05;;
3819;SDS011;1925;51.356;9.530;2023-02-23T12:46:17;43.85;;;29.85;;
3819;SDS011;1925;51.356;9.530;2023-02-23T12:51:17;39.27;;;28.87;;
3819;SDS011;1925;51.356;9.530;2023-02-23T12:53:43;37.33;;;27.40;;
3819;SDS011;1925;51.356;9.530;2023-02-23T12:56:31;36.42;;;27.48;;
3819;SDS011;1925;51.356;9.530;2023-02-23T13:06:42;35.63;;;27.07;;
3819;SDS011;1925;51.356;9.530;2023-02-23T13:09:35;34.20;;;25.52;;
3819;SDS011;1925;51.356;9.530;2023-02-23T13:14:46;32.85;;;25.30;;
3819;SDS011;1925;51.356;9.530;2023-02-23T13:19:43;26.40;;;19.77;;
3819;SDS011;1925;51.356;9.530;2023-02-23T13:24:41;22.42;;;18.08;;
3819;SDS011;1925;51.356;9.530;2023-02-23T13:27:17;22.10;;;17.88;;
3819;SDS011;1925;51.356;9.530;2023-02-23T13:29:46;18.73;;;16.15;;
3819;SDS011;1925;51.356;9.530;2023-02-23T13:32:14;15.75;;;13.50;;
3819;SDS011;1925;51.356;9.530;2023-02-23T13:34:42;15.32;;;13.52;;
3819;SDS011;1925;51.356;9.530;2023-02-23T13:37:09;15.82;;;13.20;;
3819;SDS011;1925;51.356;9.530;2023-02-23T13:45:23;17.48;;;12.82;;
3819;SDS011;1925;51.356;9.530;2023-02-23T13:52:46;15.98;;;12.27;;
3819;SDS011;1925;51.356;9.530;2023-02-23T13:57:51;17.52;;;14.80;;
3819;SDS011;1925;51.356;9.530;2023-02-23T14:00:20;19.27;;;14.73;;
3819;SDS011;1925;51.356;9.530;2023-02-23T14:02:47;17.20;;;13.15;;
3819;SDS011;1925;51.356;9.530;2023-02-23T14:05:17;17.40;;;15.60;;
3819;SDS011;1925;51.356;9.530;2023-02-23T14:07:44;18.52;;;15.18;;
3819;SDS011;1925;51.356;9.530;2023-02-23T14:10:53;21.83;;;14.00;;
3819;SDS011;1925;51.356;9.530;2023-02-23T14:20:51;15.85;;;13.00;;
3819;SDS011;1925;51.356;9.530;2023-02-23T14:41:44;16.42;;;13.88;;
3819;SDS011;1925;51.356;9.530;2023-02-23T14:44:14;16.65;;;14.60;;
3819;SDS011;1925;51.356;9.530;2023-02-23T14:46:48;19.73;;;15.30;;
3819;SDS011;1925;51.356;9.530;2023-02-23T14:49:19;17.02;;;13.60;;
3819;SDS011;1925;51.356;9.530;2023-02-23T14:51:46;15.70;;;13.48;;
3819;SDS011;1925;51.356;9.530;2023-02-23T14:54:32;15.15;;;12.50;;
3819;SDS011;1925;51.356;9.530;2023-02-23T14:56:59;15.35;;;13.52;;
3819;SDS011;1925;51.356;9.530;2023-02-23T14:59:27;17.17;;;14.40;;
3819;SDS011;1925;51.356;9.530;2023-02-23T15:01:54;17.73;;;13.45;;
3819;SDS011;1925;51.356;9.530;2023-02-23T15:04:24;17.35;;;13.05;;
3819;SDS011;1925;51.356;9.530;2023-02-23T15:06:58;16.58;;;13.80;;
3819;SDS011;1925;51.356;9.530;2023-02-23T15:09:29;14.23;;;12.73;;
3819;SDS011;1925;51.356;9.530;2023-02-23T15:11:57;15.20;;;13.15;;
3819;SDS011;1925;51.356;9.530;2023-02-23T15:14:23;14.00;;;12.52;;
3819;SDS011;1925;51.356;9.530;2023-02-23T15:16:49;15.27;;;13.20;;
3819;SDS011;1925;51.356;9.530;2023-02-23T15:19:28;15.55;;;13.60;;
3819;SDS011;1925;51.356;9.530;2023-02-23T15:21:57;16.20;;;13.25;;
3819;SDS011;1925;51.356;9.530;2023-02-23T15:24:29;16.35;;;13.95;;
3819;SDS011;1925;51.356;9.530;2023-02-23T15:26:55;16.83;;;14.85;;
3819;SDS011;1925;51.356;9.530;2023-02-23T15:29:29;17.92;;;14.90;;
3819;SDS011;1925;51.356;9.530;2023-02-23T15:31:55;18.10;;;14.80;;
3819;SDS011;1925;51.356;9.530;2023-02-23T15:34:25;17.98;;;14.68;;
3819;SDS011;1925;51.356;9.530;2023-02-23T15:39:24;20.77;;;16.48;;
3819;SDS011;1925;51.356;9.530;2023-02-23T15:41:53;23.02;;;18.15;;
3819;SDS011;1925;51.356;9.530;2023-02-23T15:44:23;25.13;;;19.10;;
3819;SDS011;1925;51.356;9.530;2023-02-23T15:47:05;24.58;;;17.83;;
3819;SDS011;1925;51.356;9.530;2023-02-23T15:49:35;30.08;;;23.27;;
3819;SDS011;1925;51.356;9.530;2023-02-23T15:52:06;26.23;;;19.05;;
3819;SDS011;1925;51.356;9.530;2023-02-23T15:54:37;23.90;;;17.00;;
3819;SDS011;1925;51.356;9.530;2023-02-23T15:57:15;23.08;;;18.83;;
3819;SDS011;1925;51.356;9.530;2023-02-23T15:59:44;26.25;;;19.10;;
3819;SDS011;1925;51.356;9.530;2023-02-23T16:02:13;26.30;;;19.00;;
3819;SDS011;1925;51.356;9.530;2023-02-23T16:04:41;23.20;;;17.85;;
3819;SDS011;1925;51.356;9.530;2023-02-23T16:09:46;25.70;;;18.67;;
3819;SDS011;1925;51.356;9.530;2023-02-23T16:12:14;31.02;;;19.85;;
3819;SDS011;1925;51.356;9.530;2023-02-23T16:17:24;30.05;;;20.15;;
3819;SDS011;1925;51.356;9.530;2023-02-23T16:19:52;25.20;;;18.98;;
3819;SDS011;1925;51.356;9.530;2023-02-23T16:22:20;29.95;;;19.52;;
3819;SDS011;1925;51.356;9.530;2023-02-23T16:24:52;30.13;;;19.13;;
3819;SDS011;1925;51.356;9.530;2023-02-23T16:27:19;31.88;;;19.88;;
3819;SDS011;1925;51.356;9.530;2023-02-23T16:29:46;28.52;;;21.02;;
3819;SDS011;1925;51.356;9.530;2023-02-23T16:32:20;37.05;;;20.67;;
3819;SDS011;1925;51.356;9.530;2023-02-23T16:34:57;28.85;;;18.50;;
3819;SDS011;1925;51.356;9.530;2023-02-23T16:37:24;27.42;;;18.90;;
3819;SDS011;1925;51.356;9.530;2023-02-23T16:39:51;28.52;;;20.95;;
3819;SDS011;1925;51.356;9.530;2023-02-23T16:42:27;28.70;;;20.08;;
3819;SDS011;1925;51.356;9.530;2023-02-23T16:44:55;34.20;;;23.58;;
3819;SDS011;1925;51.356;9.530;2023-02-23T16:49:48;30.13;;;19.90;;
3819;SDS011;1925;51.356;9.530;2023-02-23T16:52:18;29.80;;;19.92;;
3819;SDS011;1925;51.356;9.530;2023-02-23T16:54:44;27.35;;;18.90;;
3819;SDS011;1925;51.356;9.530;2023-02-23T16:57:36;28.92;;;20.30;;
3819;SDS011;1925;51.356;9.530;2023-02-23T16:59:58;31.17;;;20.17;;
3819;SDS011;1925;51.356;9.530;2023-02-23T17:02:24;26.10;;;19.00;;
3819;SDS011;1925;51.356;9.530;2023-02-23T17:04:50;25.48;;;19.63;;
3819;SDS011;1925;51.356;9.530;2023-02-23T17:07:22;35.45;;;20.38;;
3819;SDS011;1925;51.356;9.530;2023-02-23T17:09:48;30.43;;;20.00;;
3819;SDS011;1925;51.356;9.530;2023-02-23T17:12:14;25.27;;;19.60;;
3819;SDS011;1925;51.356;9.530;2023-02-23T17:14:45;32.97;;;19.90;;
3819;SDS011;1925;51.356;9.530;2023-02-23T17:17:15;20.77;;;14.30;;